createdAt,value
2018-04-27T00:00:01.333Z,992.44
2018-04-27T00:01:01.323Z,992.39
2018-04-27T00:02:01.324Z,992.33
2018-04-27T00:03:01.322Z,992.37
2018-04-27T00:04:01.310Z,992.39
2018-04-27T00:05:01.402Z,992.43
2018-04-27T00:06:01.305Z,992.36
2018-04-27T00:07:01.297Z,992.4
2018-04-27T00:08:01.291Z,992.35
2018-04-27T00:09:01.289Z,992.41
2018-04-27T00:10:01.282Z,992.42
2018-04-27T00:11:01.285Z,992.43
2018-04-27T00:12:01.280Z,992.47
2018-04-27T00:13:01.275Z,992.47
2018-04-27T00:14:01.268Z,992.54
2018-04-27T00:15:01.260Z,992.51
2018-04-27T00:16:01.254Z,992.49
2018-04-27T00:17:01.252Z,992.51
2018-04-27T00:18:01.245Z,992.5
2018-04-27T00:19:01.240Z,992.48
2018-04-27T00:20:01.240Z,992.45
2018-04-27T00:21:01.232Z,992.49
2018-04-27T00:22:01.226Z,992.47
2018-04-27T00:23:01.220Z,992.46
2018-04-27T00:24:01.216Z,992.43
2018-04-27T00:25:01.213Z,992.43
2018-04-27T00:26:01.206Z,992.37
2018-04-27T00:27:01.201Z,992.42
2018-04-27T00:28:01.205Z,992.4
2018-04-27T00:29:01.195Z,992.41
2018-04-27T00:30:01.191Z,992.44
2018-04-27T00:31:01.181Z,992.43
2018-04-27T00:32:01.177Z,992.42
2018-04-27T00:33:01.177Z,992.35
2018-04-27T00:34:01.169Z,992.31
2018-04-27T00:35:01.172Z,992.32
2018-04-27T00:36:01.168Z,992.31
2018-04-27T00:37:01.155Z,992.31
2018-04-27T00:38:01.149Z,992.34
2018-04-27T00:39:01.143Z,992.3
2018-04-27T00:40:01.141Z,992.24
2018-04-27T00:41:01.135Z,992.25
2018-04-27T00:42:01.128Z,992.24
2018-04-27T00:43:01.126Z,992.23
2018-04-27T00:44:01.122Z,992.21
2018-04-27T00:45:01.116Z,992.21
2018-04-27T00:46:01.125Z,992.18
2018-04-27T00:47:01.108Z,992.23
2018-04-27T00:48:01.099Z,992.2
2018-04-27T00:49:01.094Z,992.17
2018-04-27T00:50:01.097Z,992.19
2018-04-27T00:51:01.089Z,992.2
2018-04-27T00:52:01.082Z,992.15
2018-04-27T00:53:01.077Z,992.21
2018-04-27T00:54:01.071Z,992.2
2018-04-27T00:55:01.069Z,992.17
2018-04-27T00:56:01.064Z,992.18
2018-04-27T00:57:01.059Z,992.15
2018-04-27T00:58:01.053Z,992.16
2018-04-27T00:59:01.047Z,992.15
2018-04-27T01:00:01.084Z,992.12
2018-04-27T01:01:01.037Z,992.12
2018-04-27T01:02:01.034Z,992.14
2018-04-27T01:03:01.035Z,992.09
2018-04-27T01:04:01.024Z,992.1
2018-04-27T01:05:01.019Z,992.1
2018-04-27T01:06:01.015Z,992.13
2018-04-27T01:07:01.012Z,992.1
2018-04-27T01:08:01.008Z,992.12
2018-04-27T01:09:01.002Z,992.13
2018-04-27T01:10:00.996Z,992.07
2018-04-27T01:11:00.991Z,992.09
2018-04-27T01:12:00.991Z,992.1
2018-04-27T01:13:00.984Z,992.08
2018-04-27T01:14:00.979Z,992.1
2018-04-27T01:15:00.976Z,992.09
2018-04-27T01:16:00.974Z,992.11
2018-04-27T01:17:00.965Z,992.09
2018-04-27T01:18:00.962Z,992.12
2018-04-27T01:19:00.964Z,992.11
2018-04-27T01:20:00.950Z,992.11
2018-04-27T01:21:00.944Z,992.07
2018-04-27T01:22:00.942Z,992.1
2018-04-27T01:23:00.936Z,992.1
2018-04-27T01:24:00.932Z,992.04
2018-04-27T01:25:00.925Z,992.04
2018-04-27T01:26:00.919Z,992.03
2018-04-27T01:27:00.920Z,992.02
2018-04-27T01:28:00.911Z,992.01
2018-04-27T01:29:00.909Z,991.98
2018-04-27T01:30:00.900Z,991.98
2018-04-27T01:31:00.893Z,992.02
2018-04-27T01:32:00.890Z,992
2018-04-27T01:33:00.890Z,992
2018-04-27T01:34:00.882Z,992.06
2018-04-27T01:35:00.881Z,992.04
2018-04-27T01:36:00.867Z,992.05
2018-04-27T01:37:00.867Z,992.01
2018-04-27T01:38:00.860Z,992.02
2018-04-27T01:39:00.851Z,991.98
2018-04-27T01:40:00.845Z,991.95
2018-04-27T01:41:00.839Z,991.88
2018-04-27T01:42:00.837Z,991.88
2018-04-27T01:43:00.831Z,991.89
2018-04-27T01:44:00.829Z,991.87
2018-04-27T01:45:00.827Z,991.87
2018-04-27T01:46:00.813Z,991.83
2018-04-27T01:47:00.818Z,991.85
2018-04-27T01:48:00.802Z,991.81
2018-04-27T01:49:00.799Z,991.79
2018-04-27T01:50:00.792Z,991.82
2018-04-27T01:51:00.787Z,991.78
2018-04-27T01:52:00.782Z,991.77
2018-04-27T01:53:00.778Z,991.77
2018-04-27T01:54:00.771Z,991.77
2018-04-27T01:55:00.766Z,991.78
2018-04-27T01:56:00.760Z,991.75
2018-04-27T01:57:00.755Z,991.71
2018-04-27T01:58:00.749Z,991.71
2018-04-27T01:59:00.745Z,991.72
2018-04-27T02:00:00.738Z,991.72
2018-04-27T02:01:00.733Z,991.72
2018-04-27T02:02:00.731Z,991.68
2018-04-27T02:03:00.722Z,991.64
2018-04-27T02:04:00.720Z,991.6
2018-04-27T02:05:00.711Z,991.58
2018-04-27T02:06:00.728Z,991.6
2018-04-27T02:07:00.700Z,991.62
2018-04-27T02:08:00.695Z,991.55
2018-04-27T02:09:00.692Z,991.56
2018-04-27T02:10:00.683Z,991.52
2018-04-27T02:11:00.678Z,991.5
2018-04-27T02:12:00.673Z,991.49
2018-04-27T02:13:00.667Z,991.51
2018-04-27T02:14:00.663Z,991.46
2018-04-27T02:15:00.656Z,991.45
2018-04-27T02:16:00.682Z,991.48
2018-04-27T02:17:00.646Z,991.41
2018-04-27T02:18:00.639Z,991.42
2018-04-27T02:19:00.634Z,991.42
2018-04-27T02:20:00.630Z,991.44
2018-04-27T02:21:00.626Z,991.43
2018-04-27T02:22:00.617Z,991.4
2018-04-27T02:23:00.612Z,991.39
2018-04-27T02:24:00.608Z,991.4
2018-04-27T02:25:00.602Z,991.39
2018-04-27T02:26:00.595Z,991.4
2018-04-27T02:27:00.590Z,991.41
2018-04-27T02:28:00.583Z,991.39
2018-04-27T02:29:00.578Z,991.38
2018-04-27T02:30:00.578Z,991.41
2018-04-27T02:31:00.568Z,991.35
2018-04-27T02:32:00.564Z,991.36
2018-04-27T02:33:00.555Z,991.4
2018-04-27T02:34:00.551Z,991.38
2018-04-27T02:35:00.562Z,991.35
2018-04-27T02:36:00.538Z,991.37
2018-04-27T02:37:00.532Z,991.35
2018-04-27T02:38:00.535Z,991.33
2018-04-27T02:39:00.525Z,991.32
2018-04-27T02:40:00.517Z,991.34
2018-04-27T02:41:00.514Z,991.31
2018-04-27T02:42:00.504Z,991.25
2018-04-27T02:43:00.500Z,991.27
2018-04-27T02:44:00.494Z,991.25
2018-04-27T02:45:00.489Z,991.24
2018-04-27T02:46:00.482Z,991.22
2018-04-27T02:47:00.476Z,991.23
2018-04-27T02:48:00.472Z,991.17
2018-04-27T02:49:00.478Z,991.17
2018-04-27T02:50:00.460Z,991.19
2018-04-27T02:51:00.455Z,991.19
2018-04-27T02:52:00.450Z,991.15
2018-04-27T02:53:00.442Z,991.12
2018-04-27T02:54:00.438Z,991.14
2018-04-27T02:55:00.436Z,991.13
2018-04-27T02:56:00.428Z,991.1
2018-04-27T02:57:00.419Z,991.12
2018-04-27T02:58:00.414Z,991.07
2018-04-27T02:59:00.410Z,991.02
2018-04-27T03:00:00.408Z,991.05
2018-04-27T03:01:00.411Z,991.01
2018-04-27T03:02:00.395Z,990.98
2018-04-27T03:03:00.395Z,990.99
2018-04-27T03:04:00.382Z,990.94
2018-04-27T03:05:00.377Z,990.95
2018-04-27T03:06:00.369Z,990.92
2018-04-27T03:07:00.366Z,990.93
2018-04-27T03:08:00.358Z,990.94
2018-04-27T03:09:00.357Z,990.96
2018-04-27T03:10:00.348Z,990.94
2018-04-27T03:11:00.342Z,990.92
2018-04-27T03:12:00.340Z,990.92
2018-04-27T03:13:00.330Z,990.9
2018-04-27T03:14:00.326Z,990.88
2018-04-27T03:15:00.317Z,990.87
2018-04-27T03:16:00.313Z,990.87
2018-04-27T03:17:00.307Z,990.83
2018-04-27T03:18:00.305Z,990.8
2018-04-27T03:19:00.298Z,990.8
2018-04-27T03:20:00.293Z,990.79
2018-04-27T03:21:00.287Z,990.75
2018-04-27T03:22:00.282Z,990.74
2018-04-27T03:23:00.277Z,990.75
2018-04-27T03:24:00.365Z,990.75
2018-04-27T03:25:00.267Z,990.74
2018-04-27T03:26:00.266Z,990.75
2018-04-27T03:27:00.258Z,990.74
2018-04-27T03:28:00.254Z,990.76
2018-04-27T03:29:00.253Z,990.79
2018-04-27T03:37:54.066Z,990.71
2018-04-27T03:38:54.062Z,990.75
2018-04-27T03:39:54.056Z,990.75
2018-04-27T03:40:54.051Z,990.69
2018-04-27T03:41:54.048Z,990.68
2018-04-27T03:42:54.038Z,990.66
2018-04-27T03:43:54.033Z,990.68
2018-04-27T03:44:54.027Z,990.65
2018-04-27T03:45:54.023Z,990.62
2018-04-27T03:46:54.015Z,990.64
2018-04-27T03:47:54.010Z,990.58
2018-04-27T03:48:54.017Z,990.56
2018-04-27T03:49:53.999Z,990.57
2018-04-27T03:50:53.992Z,990.55
2018-04-27T03:51:54.027Z,990.51
2018-04-27T03:52:53.981Z,990.51
2018-04-27T03:53:53.981Z,990.51
2018-04-27T03:54:53.969Z,990.47
2018-04-27T03:55:53.964Z,990.48
2018-04-27T03:56:53.959Z,990.48
2018-04-27T03:57:53.953Z,990.42
2018-04-27T03:58:53.951Z,990.41
2018-04-27T03:59:53.943Z,990.35
2018-04-27T04:00:53.937Z,990.34
2018-04-27T04:01:53.931Z,990.34
2018-04-27T04:02:53.924Z,990.29
2018-04-27T04:03:53.919Z,990.23
2018-04-27T04:04:53.913Z,990.23
2018-04-27T04:05:53.912Z,990.19
2018-04-27T04:06:53.900Z,990.23
2018-04-27T04:07:53.896Z,990.21
2018-04-27T04:08:53.888Z,990.23
2018-04-27T04:09:53.883Z,990.21
2018-04-27T04:10:53.879Z,990.19
2018-04-27T04:11:53.882Z,990.21
2018-04-27T04:12:53.872Z,990.15
2018-04-27T04:13:53.860Z,990.15
2018-04-27T04:14:53.858Z,990.13
2018-04-27T04:15:53.852Z,990.13
2018-04-27T04:16:53.846Z,990.13
2018-04-27T04:17:53.839Z,990.06
2018-04-27T04:18:53.832Z,990.08
2018-04-27T04:19:53.825Z,990.07
2018-04-27T04:20:53.820Z,990.08
2018-04-27T04:21:53.816Z,990.06
2018-04-27T04:22:53.812Z,990.09
2018-04-27T04:23:53.804Z,990.1
2018-04-27T04:24:53.799Z,990.08
2018-04-27T04:25:53.792Z,990.08
2018-04-27T04:26:53.785Z,990.04
2018-04-27T04:27:53.784Z,990.03
2018-04-27T04:28:53.774Z,990.02
2018-04-27T04:29:53.769Z,989.99
2018-04-27T04:30:53.769Z,990.03
2018-04-27T04:31:53.785Z,990.08
2018-04-27T04:32:53.752Z,990.08
2018-04-27T04:33:53.749Z,990.09
2018-04-27T04:34:53.740Z,990.08
2018-04-27T04:35:53.736Z,990.1
2018-04-27T04:36:53.731Z,990.08
2018-04-27T04:37:53.724Z,990.08
2018-04-27T04:38:53.717Z,990.07
2018-04-27T04:39:53.712Z,990.06
2018-04-27T04:40:53.709Z,990.09
2018-04-27T04:41:53.703Z,990.13
2018-04-27T04:42:53.696Z,990.11
2018-04-27T04:43:53.691Z,990.1
2018-04-27T04:44:53.686Z,990.05
2018-04-27T04:45:53.681Z,990.03
2018-04-27T04:46:53.677Z,990.11
2018-04-27T04:47:53.673Z,990.1
2018-04-27T04:48:53.666Z,990.04
2018-04-27T04:49:53.663Z,990.03
2018-04-27T04:50:53.660Z,990
2018-04-27T04:51:53.659Z,989.96
2018-04-27T04:52:53.651Z,989.99
2018-04-27T04:53:53.653Z,989.97
2018-04-27T04:54:53.649Z,989.96
2018-04-27T04:55:53.641Z,989.97
2018-04-27T04:56:53.643Z,989.95
2018-04-27T04:57:53.638Z,990.01
2018-04-27T04:58:53.633Z,989.95
2018-04-27T04:59:53.631Z,989.95
2018-04-27T05:00:53.629Z,989.93
2018-04-27T05:01:53.627Z,989.89
2018-04-27T05:02:53.832Z,989.94
2018-04-27T05:03:53.626Z,989.96
2018-04-27T05:04:53.621Z,990
2018-04-27T05:05:53.619Z,989.94
2018-04-27T05:06:53.614Z,990
2018-04-27T05:07:53.617Z,990.01
2018-04-27T05:08:53.613Z,990.08
2018-04-27T05:09:53.611Z,990.02
2018-04-27T05:10:53.692Z,989.96
2018-04-27T05:11:53.609Z,989.95
2018-04-27T05:12:53.608Z,989.88
2018-04-27T05:13:53.629Z,989.93
2018-04-27T05:14:53.614Z,989.87
2018-04-27T05:15:53.609Z,989.93
2018-04-27T05:16:53.615Z,989.91
2018-04-27T05:17:53.605Z,989.91
2018-04-27T05:18:53.612Z,989.93
2018-04-27T05:19:53.596Z,989.91
2018-04-27T05:20:53.593Z,989.89
2018-04-27T05:21:53.591Z,989.86
2018-04-27T05:22:53.589Z,989.82
2018-04-27T05:23:53.585Z,989.81
2018-04-27T05:24:53.584Z,989.78
2018-04-27T05:25:53.581Z,989.75
2018-04-27T05:26:53.580Z,989.69
2018-04-27T05:27:53.578Z,989.66
2018-04-27T05:28:53.577Z,989.63
2018-04-27T05:29:53.571Z,989.63
2018-04-27T05:30:53.570Z,989.61
2018-04-27T05:31:53.568Z,989.55
2018-04-27T05:32:54.612Z,989.58
2018-04-27T05:33:53.559Z,989.59
2018-04-27T05:34:53.559Z,989.57
2018-04-27T05:35:53.559Z,989.61
2018-04-27T05:36:53.559Z,989.62
2018-04-27T05:37:53.568Z,989.62
2018-04-27T05:38:53.557Z,989.64
2018-04-27T05:39:53.540Z,989.64
2018-04-27T05:40:53.536Z,989.57
2018-04-27T05:41:53.537Z,989.61
2018-04-27T05:42:53.579Z,989.6
2018-04-27T05:43:53.593Z,989.61
2018-04-27T05:44:53.527Z,989.62
2018-04-27T05:45:53.525Z,989.63
2018-04-27T05:46:53.518Z,989.72
2018-04-27T05:47:53.513Z,989.69
2018-04-27T05:48:53.551Z,989.69
2018-04-27T05:49:53.506Z,989.68
2018-04-27T05:50:53.503Z,989.68
2018-04-27T05:51:53.504Z,989.7
2018-04-27T05:52:53.508Z,989.71
2018-04-27T05:53:53.499Z,989.66
2018-04-27T05:54:53.490Z,989.69
2018-04-27T05:55:53.489Z,989.67
2018-04-27T05:56:53.485Z,989.66
2018-04-27T05:57:53.483Z,989.68
2018-04-27T05:58:53.483Z,989.7
2018-04-27T05:59:53.475Z,989.66
2018-04-27T06:00:53.473Z,989.65
2018-04-27T06:01:53.469Z,989.56
2018-04-27T06:02:53.466Z,989.56
2018-04-27T06:03:53.466Z,989.47
2018-04-27T06:04:53.461Z,989.47
2018-04-27T06:05:53.458Z,989.46
2018-04-27T06:06:53.456Z,989.46
2018-04-27T06:07:53.453Z,989.43
2018-04-27T06:08:53.449Z,989.41
2018-04-27T06:09:53.449Z,989.47
2018-04-27T06:10:53.452Z,989.44
2018-04-27T06:11:53.450Z,989.42
2018-04-27T06:12:53.440Z,989.43
2018-04-27T06:13:53.438Z,989.46
2018-04-27T06:22:57.435Z,989.41
2018-04-27T06:23:57.428Z,989.32
2018-04-27T06:24:57.423Z,989.28
2018-04-27T06:25:57.421Z,989.27
2018-04-27T06:26:57.419Z,989.25
2018-04-27T06:27:57.419Z,989.23
2018-04-27T06:28:57.419Z,989.2
2018-04-27T06:29:57.421Z,989.21
2018-04-27T06:30:57.419Z,989.23
2018-04-27T06:31:57.421Z,989.19
2018-04-27T06:32:57.421Z,989.19
2018-04-27T06:33:57.429Z,989.13
2018-04-27T06:34:57.426Z,989.14
2018-04-27T06:35:57.429Z,989.1
2018-04-27T06:36:57.433Z,989.1
2018-04-27T06:37:57.437Z,989.09
2018-04-27T06:38:57.436Z,989.05
2018-04-27T06:39:57.444Z,989.05
2018-04-27T06:40:57.501Z,989.02
2018-04-27T06:41:57.501Z,989.04
2018-04-27T06:42:57.449Z,989.04
2018-04-27T06:43:57.452Z,988.95
2018-04-27T06:44:57.459Z,988.94
2018-04-27T06:45:57.463Z,988.89
2018-04-27T06:46:57.477Z,988.9
2018-04-27T06:47:57.475Z,988.87
2018-04-27T06:48:57.475Z,988.87
2018-04-27T06:49:57.480Z,988.88
2018-04-27T06:50:57.485Z,988.84
2018-04-27T06:51:57.492Z,988.82
2018-04-27T06:52:57.495Z,988.83
2018-04-27T06:53:57.499Z,988.82
2018-04-27T06:54:57.507Z,988.79
2018-04-27T06:55:57.510Z,988.76
2018-04-27T06:56:57.521Z,988.77
2018-04-27T06:57:57.528Z,988.74
2018-04-27T06:58:57.524Z,988.71
2018-04-27T06:59:57.529Z,988.64
2018-04-27T07:00:57.533Z,988.65
2018-04-27T07:01:57.537Z,988.62
2018-04-27T07:02:57.542Z,988.57
2018-04-27T07:03:57.549Z,988.62
2018-04-27T07:04:57.562Z,988.58
2018-04-27T07:05:57.559Z,988.58
2018-04-27T07:06:57.563Z,988.57
2018-04-27T07:07:57.568Z,988.5
2018-04-27T07:08:57.572Z,988.55
2018-04-27T07:09:57.577Z,988.48
2018-04-27T07:10:57.587Z,988.42
2018-04-27T07:11:57.590Z,988.43
2018-04-27T07:12:57.593Z,988.41
2018-04-27T07:13:57.613Z,988.4
2018-04-27T07:14:57.608Z,988.36
2018-04-27T07:15:57.610Z,988.31
2018-04-27T07:16:57.721Z,988.29
2018-04-27T07:17:57.618Z,988.36
2018-04-27T07:18:57.628Z,988.33
2018-04-27T07:19:57.629Z,988.29
2018-04-27T07:20:57.633Z,988.31
2018-04-27T07:21:57.638Z,988.35
2018-04-27T07:22:57.644Z,988.33
2018-04-27T07:23:57.649Z,988.3
2018-04-27T07:24:57.652Z,988.3
2018-04-27T07:25:57.704Z,988.24
2018-04-27T07:26:57.675Z,988.26
2018-04-27T07:27:57.677Z,988.25
2018-04-27T07:28:57.672Z,988.18
2018-04-27T07:29:57.676Z,988.16
2018-04-27T07:30:57.679Z,988.2
2018-04-27T07:31:57.682Z,988.17
2018-04-27T07:32:57.685Z,988.12
2018-04-27T07:33:57.691Z,988.1
2018-04-27T07:34:57.693Z,988.08
2018-04-27T07:35:57.699Z,988.07
2018-04-27T07:36:57.702Z,988.03
2018-04-27T07:37:58.662Z,988.04
2018-04-27T07:38:57.715Z,988
2018-04-27T07:39:57.711Z,987.93
2018-04-27T07:40:57.715Z,987.92
2018-04-27T07:41:57.720Z,987.9
2018-04-27T07:42:57.718Z,987.91
2018-04-27T07:43:57.723Z,987.91
2018-04-27T07:44:57.728Z,987.9
2018-04-27T07:45:57.745Z,987.92
2018-04-27T07:46:57.731Z,987.88
2018-04-27T07:47:57.734Z,987.87
2018-04-27T07:48:57.741Z,987.9
2018-04-27T07:49:57.740Z,987.93
2018-04-27T07:50:57.750Z,987.89
2018-04-27T07:51:57.760Z,987.84
2018-04-27T07:52:57.752Z,987.85
2018-04-27T07:53:57.756Z,987.91
2018-04-27T07:54:57.765Z,987.85
2018-04-27T07:55:57.765Z,987.83
2018-04-27T07:56:57.772Z,987.85
2018-04-27T07:57:57.774Z,987.83
2018-04-27T07:58:57.779Z,987.74
2018-04-27T07:59:57.784Z,987.74
2018-04-27T08:00:57.788Z,987.73
2018-04-27T08:01:57.795Z,987.68
2018-04-27T08:02:57.800Z,987.7
2018-04-27T08:03:57.806Z,987.64
2018-04-27T08:04:57.809Z,987.61
2018-04-27T08:05:57.829Z,987.57
2018-04-27T08:06:57.847Z,987.6
2018-04-27T08:07:57.827Z,987.6
2018-04-27T08:08:57.926Z,987.59
2018-04-27T08:09:57.838Z,987.58
2018-04-27T08:10:57.850Z,987.52
2018-04-27T08:11:57.849Z,987.45
2018-04-27T08:12:57.855Z,987.47
2018-04-27T08:13:57.863Z,987.49
2018-04-27T08:14:57.870Z,987.46
2018-04-27T08:15:57.871Z,987.47
2018-04-27T08:16:57.876Z,987.44
2018-04-27T08:17:57.905Z,987.47
2018-04-27T08:18:57.888Z,987.5
2018-04-27T08:19:57.893Z,987.45
2018-04-27T08:20:57.899Z,987.39
2018-04-27T08:21:57.906Z,987.34
2018-04-27T08:22:57.913Z,987.37
2018-04-27T08:23:57.916Z,987.32
2018-04-27T08:24:57.921Z,987.27
2018-04-27T08:25:57.928Z,987.3
2018-04-27T08:26:57.933Z,987.27
2018-04-27T08:27:57.937Z,987.18
2018-04-27T08:28:57.945Z,987.2
2018-04-27T08:29:57.947Z,987.21
2018-04-27T08:30:57.956Z,987.16
2018-04-27T08:31:57.978Z,987.17
2018-04-27T08:32:57.966Z,987.16
2018-04-27T08:33:57.971Z,987.17
2018-04-27T08:34:57.978Z,987.16
2018-04-27T08:35:57.983Z,987.07
2018-04-27T08:36:57.989Z,987.06
2018-04-27T08:37:57.999Z,987.04
2018-04-27T08:38:58.007Z,987.03
2018-04-27T08:39:58.006Z,987.02
2018-04-27T08:40:58.013Z,987.03
2018-04-27T08:41:58.023Z,987.02
2018-04-27T08:42:58.029Z,987.01
2018-04-27T08:43:58.031Z,986.96
2018-04-27T08:44:58.036Z,986.95
2018-04-27T08:45:58.042Z,986.91
2018-04-27T08:46:58.049Z,986.92
2018-04-27T08:47:58.053Z,986.97
2018-04-27T08:48:58.060Z,986.9
2018-04-27T08:49:58.064Z,986.93
2018-04-27T08:50:58.070Z,986.89
2018-04-27T08:51:58.072Z,986.85
2018-04-27T08:52:58.078Z,986.87
2018-04-27T08:53:58.084Z,986.83
2018-04-27T08:54:58.087Z,986.87
2018-04-27T08:55:58.090Z,986.89
2018-04-27T08:56:58.092Z,986.84
2018-04-27T08:57:58.103Z,987
2018-04-27T08:58:58.103Z,986.83
2018-04-27T08:59:58.109Z,986.84
2018-04-27T09:00:58.106Z,986.86
2018-04-27T09:01:58.117Z,986.81
2018-04-27T09:02:58.113Z,986.84
2018-04-27T09:03:58.117Z,986.81
2018-04-27T09:04:58.120Z,986.71
2018-04-27T09:05:58.121Z,986.66
2018-04-27T09:06:58.124Z,986.7
2018-04-27T09:07:58.126Z,986.71
2018-04-27T09:08:58.132Z,986.7
2018-04-27T09:09:58.140Z,986.68
2018-04-27T09:10:58.133Z,986.67
2018-04-27T09:11:58.134Z,986.63
2018-04-27T09:12:58.137Z,986.6
2018-04-27T09:13:58.140Z,986.61
2018-04-27T09:14:58.141Z,986.6
2018-04-27T09:15:58.144Z,986.61
2018-04-27T09:16:58.147Z,986.52
2018-04-27T09:17:58.148Z,986.57
2018-04-27T09:18:58.152Z,986.56
2018-04-27T09:19:58.151Z,986.52
2018-04-27T09:20:58.153Z,986.54
2018-04-27T09:21:58.155Z,986.44
2018-04-27T09:22:58.156Z,986.46
2018-04-27T09:23:58.208Z,986.45
2018-04-27T09:24:58.223Z,986.42
2018-04-27T09:25:58.163Z,986.46
2018-04-27T09:26:58.214Z,986.42
2018-04-27T09:27:58.171Z,986.49
2018-04-27T09:28:58.166Z,986.44
2018-04-27T09:29:58.178Z,986.4
2018-04-27T09:30:58.174Z,986.41
2018-04-27T09:31:58.182Z,986.38
2018-04-27T09:32:58.176Z,986.33
2018-04-27T09:33:58.181Z,986.33
2018-04-27T09:34:58.186Z,986.29
2018-04-27T09:35:58.182Z,986.26
2018-04-27T09:36:58.189Z,986.36
2018-04-27T09:37:58.193Z,986.32
2018-04-27T09:39:00.051Z,986.35
2018-04-27T09:39:58.193Z,986.26
2018-04-27T09:40:58.272Z,986.27
2018-04-27T09:41:58.194Z,986.26
2018-04-27T09:42:58.194Z,986.2
2018-04-27T09:43:58.197Z,986.18
2018-04-27T09:44:58.201Z,986.2
2018-04-27T09:45:58.200Z,986.14
2018-04-27T09:46:58.201Z,986.14
2018-04-27T09:47:58.205Z,986.08
2018-04-27T09:48:58.205Z,986.07
2018-04-27T09:49:58.208Z,986.08
2018-04-27T09:50:58.214Z,986.09
2018-04-27T09:51:58.211Z,986.03
2018-04-27T09:52:58.212Z,986.06
2018-04-27T09:53:58.214Z,985.99
2018-04-27T09:54:58.216Z,985.95
2018-04-27T09:55:58.217Z,985.94
2018-04-27T09:56:58.219Z,985.93
2018-04-27T09:57:58.220Z,985.94
2018-04-27T09:58:58.221Z,985.88
2018-04-27T09:59:58.224Z,985.89
2018-04-27T10:00:58.225Z,985.93
2018-04-27T10:01:58.227Z,985.91
2018-04-27T10:02:58.231Z,985.88
2018-04-27T10:03:58.233Z,985.86
2018-04-27T10:04:58.232Z,985.82
2018-04-27T10:05:58.237Z,985.85
2018-04-27T10:06:58.237Z,985.87
2018-04-27T10:07:58.245Z,985.88
2018-04-27T10:08:58.242Z,985.83
2018-04-27T10:09:58.243Z,985.85
2018-04-27T10:10:58.244Z,985.77
2018-04-27T10:11:58.250Z,985.73
2018-04-27T10:12:58.251Z,985.79
2018-04-27T10:13:58.249Z,985.79
2018-04-27T10:14:58.276Z,985.77
2018-04-27T10:15:58.253Z,985.76
2018-04-27T10:16:58.257Z,985.87
2018-04-27T10:17:58.264Z,985.75
2018-04-27T10:18:58.259Z,985.76
2018-04-27T10:19:58.259Z,985.75
2018-04-27T10:20:58.261Z,985.79
2018-04-27T10:21:58.275Z,985.75
2018-04-27T10:52:37.779Z,985.23
2018-04-27T10:53:37.765Z,985.21
2018-04-27T10:54:37.764Z,985.16
2018-04-27T10:55:37.763Z,985.17
2018-04-27T10:56:37.756Z,985.18
2018-04-27T10:57:37.756Z,985.19
2018-04-27T10:58:37.756Z,985.17
2018-04-27T10:59:37.754Z,985.11
2018-04-27T11:00:37.758Z,985.08
2018-04-27T11:01:37.761Z,985.12
2018-04-27T11:02:37.755Z,985.07
2018-04-27T11:03:37.757Z,985.07
2018-04-27T11:04:37.757Z,985.01
2018-04-27T11:05:37.833Z,984.97
2018-04-27T11:06:37.763Z,984.96
2018-04-27T11:07:37.763Z,984.88
2018-04-27T11:08:37.762Z,984.92
2018-04-27T11:09:37.765Z,984.85
2018-04-27T11:10:37.770Z,984.86
2018-04-27T11:11:37.769Z,984.79
2018-04-27T11:12:37.770Z,984.73
2018-04-27T11:13:37.772Z,984.78
2018-04-27T11:14:37.776Z,984.8
2018-04-27T11:15:37.829Z,984.77
2018-04-27T11:16:37.778Z,984.77
2018-04-27T11:17:37.780Z,984.7
2018-04-27T11:18:37.789Z,984.73
2018-04-27T11:19:37.792Z,984.67
2018-04-27T11:20:37.792Z,984.7
2018-04-27T11:21:37.790Z,984.58
2018-04-27T11:22:37.793Z,984.57
2018-04-27T11:23:37.795Z,984.56
2018-04-27T11:24:37.798Z,984.52
2018-04-27T11:25:37.799Z,984.46
2018-04-27T11:26:37.801Z,984.47
2018-04-27T11:27:37.805Z,984.47
2018-04-27T11:28:37.825Z,984.45
2018-04-27T11:29:37.807Z,984.5
2018-04-27T11:30:37.810Z,984.48
2018-04-27T11:31:37.811Z,984.4
2018-04-27T11:32:37.815Z,984.43
2018-04-27T11:33:37.817Z,984.43
2018-04-27T11:34:37.820Z,984.36
2018-04-27T11:35:37.821Z,984.36
2018-04-27T11:36:37.823Z,984.33
2018-04-27T11:37:37.827Z,984.34
2018-04-27T11:38:37.829Z,984.37
2018-04-27T11:39:37.833Z,984.31
2018-04-27T11:40:37.836Z,984.3
2018-04-27T11:41:37.835Z,984.22
2018-04-27T11:42:37.839Z,984.18
2018-04-27T11:43:37.840Z,984.15
2018-04-27T11:44:37.847Z,984.09
2018-04-27T11:45:37.854Z,984.11
2018-04-27T11:46:37.847Z,984.05
2018-04-27T11:47:37.866Z,984.1
2018-04-27T11:48:37.858Z,984.07
2018-04-27T11:49:37.856Z,984.04
2018-04-27T11:50:37.880Z,984.01
2018-04-27T11:51:37.861Z,984
2018-04-27T11:52:37.859Z,983.97
2018-04-27T11:53:37.876Z,983.99
2018-04-27T11:54:37.878Z,983.89
2018-04-27T11:55:37.902Z,983.86
2018-04-27T11:56:37.879Z,983.86
2018-04-27T11:57:37.883Z,983.81
2018-04-27T11:58:37.877Z,983.82
2018-04-27T11:59:37.882Z,983.83
2018-04-27T12:00:37.884Z,983.87
2018-04-27T12:01:37.891Z,983.82
2018-04-27T12:02:37.908Z,983.86
2018-04-27T12:03:37.915Z,983.86
2018-04-27T12:04:37.891Z,983.83
2018-04-27T12:05:37.907Z,983.82
2018-04-27T12:06:37.893Z,983.83
2018-04-27T12:07:37.895Z,983.79
2018-04-27T12:08:37.901Z,983.82
2018-04-27T12:09:37.899Z,983.81
2018-04-27T12:10:37.905Z,983.86
2018-04-27T12:11:37.908Z,983.87
2018-04-27T12:12:37.909Z,983.87
2018-04-27T12:13:37.911Z,983.84
2018-04-27T12:14:37.913Z,983.87
2018-04-27T12:15:37.917Z,983.9
2018-04-27T12:16:37.917Z,983.86
2018-04-27T12:17:37.930Z,983.84
2018-04-27T12:18:37.929Z,983.85
2018-04-27T12:19:37.930Z,983.89
2018-04-27T12:20:37.932Z,983.88
2018-04-27T12:21:37.933Z,983.91
2018-04-27T12:22:37.950Z,983.88
2018-04-27T12:23:37.939Z,983.85
2018-04-27T12:24:37.949Z,983.91
2018-04-27T12:25:37.950Z,983.86
2018-04-27T12:26:37.955Z,983.84
2018-04-27T12:27:37.952Z,983.83
2018-04-27T12:28:37.959Z,983.77
2018-04-27T12:29:37.960Z,983.77
2018-04-27T12:30:37.959Z,983.79
2018-04-27T12:31:38.124Z,983.74
2018-04-27T12:32:37.965Z,983.75
2018-04-27T12:33:37.970Z,983.75
2018-04-27T12:34:37.969Z,983.74
2018-04-27T12:35:37.974Z,983.71
2018-04-27T12:36:37.975Z,983.69
2018-04-27T12:37:37.980Z,983.71
2018-04-27T12:38:37.982Z,983.72
2018-04-27T12:39:37.985Z,983.72
2018-04-27T12:40:37.987Z,983.68
2018-04-27T12:41:37.988Z,983.63
2018-04-27T12:42:37.994Z,983.57
2018-04-27T12:43:37.998Z,983.57
2018-04-27T12:44:37.999Z,983.57
2018-04-27T12:45:38.001Z,983.58
2018-04-27T12:46:38.005Z,983.58
2018-04-27T12:47:38.009Z,983.6
2018-04-27T12:48:38.011Z,983.56
2018-04-27T12:49:38.014Z,983.55
2018-04-27T12:50:38.017Z,983.56
2018-04-27T12:51:38.021Z,983.56
2018-04-27T12:52:38.020Z,983.53
2018-04-27T12:53:38.026Z,983.47
2018-04-27T12:54:38.029Z,983.56
2018-04-27T12:55:38.031Z,983.53
2018-04-27T12:56:38.036Z,983.59
2018-04-27T12:57:38.037Z,983.57
2018-04-27T12:58:38.040Z,983.56
2018-04-27T12:59:38.044Z,983.51
2018-04-27T13:00:38.044Z,983.51
2018-04-27T13:01:38.051Z,983.47
2018-04-27T13:02:38.052Z,983.46
2018-04-27T13:03:38.055Z,983.48
2018-04-27T13:04:38.057Z,983.4
2018-04-27T13:05:38.060Z,983.38
2018-04-27T13:06:38.063Z,983.3
2018-04-27T13:07:38.066Z,983.27
2018-04-27T13:08:38.277Z,983.24
2018-04-27T13:09:38.072Z,983.26
2018-04-27T13:10:38.096Z,983.21
2018-04-27T13:11:38.092Z,983.21
2018-04-27T13:12:38.083Z,983.21
2018-04-27T13:13:38.086Z,983.26
2018-04-27T13:14:38.087Z,983.24
2018-04-27T13:15:38.093Z,983.21
2018-04-27T13:16:38.097Z,983.2